sensor_id;sensor_type;location;lat;lon;timestamp;temperature;humidity
53073;DHT22;38955;48.916;2.336;2024-03-23T00:55:31;10.60;99.90
53073;DHT22;38955;48.916;2.336;2024-03-23T00:57:32;10.70;99.90
53073;DHT22;38955;48.916;2.336;2024-03-23T00:59:34;10.70;99.90
53073;DHT22;38955;48.916;2.336;2024-03-23T01:01:35;10.80;99.90
53073;DHT22;38955;48.916;2.336;2024-03-23T01:03:36;10.70;99.90
53073;DHT22;38955;48.916;2.336;2024-03-23T01:05:38;10.80;99.90
53073;DHT22;38955;48.916;2.336;2024-03-23T01:07:39;10.80;99.90
53073;DHT22;38955;48.916;2.336;2024-03-23T01:09:40;11.00;99.90
53073;DHT22;38955;48.916;2.336;2024-03-23T01:11:43;11.00;99.90
53073;DHT22;38955;48.916;2.336;2024-03-23T01:13:44;11.00;99.90
53073;DHT22;38955;48.916;2.336;2024-03-23T01:15:48;11.00;99.90
53073;DHT22;38955;48.916;2.336;2024-03-23T01:17:50;11.10;99.90
53073;DHT22;38955;48.916;2.336;2024-03-23T01:19:51;11.10;99.90
53073;DHT22;38955;48.916;2.336;2024-03-23T01:21:52;11.10;99.90
53073;DHT22;38955;48.916;2.336;2024-03-23T01:23:54;11.20;99.90
53073;DHT22;38955;48.916;2.336;2024-03-23T01:25:55;11.10;99.90
53073;DHT22;38955;48.916;2.336;2024-03-23T01:27:58;11.20;99.90
53073;DHT22;38955;48.916;2.336;2024-03-23T01:30:00;11.20;99.90
53073;DHT22;38955;48.916;2.336;2024-03-23T01:32:01;11.20;99.90
53073;DHT22;38955;48.916;2.336;2024-03-23T01:34:02;11.10;99.90
53073;DHT22;38955;48.916;2.336;2024-03-23T01:36:04;11.00;99.90
53073;DHT22;38955;48.916;2.336;2024-03-23T01:38:06;11.00;99.90
53073;DHT22;38955;48.916;2.336;2024-03-23T01:40:08;11.10;99.90
53073;DHT22;38955;48.916;2.336;2024-03-23T01:42:09;11.10;99.90
53073;DHT22;38955;48.916;2.336;2024-03-23T01:44:13;11.10;99.90
53073;DHT22;38955;48.916;2.336;2024-03-23T01:46:14;11.10;99.90
53073;DHT22;38955;48.916;2.336;2024-03-23T01:48:15;11.10;99.90
53073;DHT22;38955;48.916;2.336;2024-03-23T01:50:17;11.00;99.90
53073;DHT22;38955;48.916;2.336;2024-03-23T01:52:18;11.00;99.90
53073;DHT22;38955;48.916;2.336;2024-03-23T01:54:20;11.00;99.90
53073;DHT22;38955;48.916;2.336;2024-03-23T01:56:22;11.00;99.90
53073;DHT22;38955;48.916;2.336;2024-03-23T01:58:23;11.00;99.90
53073;DHT22;38955;48.916;2.336;2024-03-23T02:00:26;11.00;99.90
53073;DHT22;38955;48.916;2.336;2024-03-23T02:02:29;11.00;99.90
53073;DHT22;38955;48.916;2.336;2024-03-23T02:04:30;11.00;99.90
53073;DHT22;38955;48.916;2.336;2024-03-23T02:06:33;11.00;99.90
53073;DHT22;38955;48.916;2.336;2024-03-23T02:08:34;10.90;99.90
53073;DHT22;38955;48.916;2.336;2024-03-23T02:10:36;10.90;99.90
53073;DHT22;38955;48.916;2.336;2024-03-23T02:12:37;10.90;99.90
53073;DHT22;38955;48.916;2.336;2024-03-23T02:14:39;10.90;99.90
53073;DHT22;38955;48.916;2.336;2024-03-23T02:16:43;10.90;99.90
53073;DHT22;38955;48.916;2.336;2024-03-23T02:18:44;10.90;99.90
53073;DHT22;38955;48.916;2.336;2024-03-23T02:20:46;11.00;99.90
53073;DHT22;38955;48.916;2.336;2024-03-23T02:22:53;10.90;99.90
53073;DHT22;38955;48.916;2.336;2024-03-23T02:24:54;10.90;99.90
53073;DHT22;38955;48.916;2.336;2024-03-23T02:26:56;10.90;99.90
53073;DHT22;38955;48.916;2.336;2024-03-23T02:28:57;10.90;99.90
53073;DHT22;38955;48.916;2.336;2024-03-23T02:30:59;11.00;99.90
53073;DHT22;38955;48.916;2.336;2024-03-23T02:33:03;10.90;99.90
53073;DHT22;38955;48.916;2.336;2024-03-23T02:35:05;10.90;99.90
53073;DHT22;38955;48.916;2.336;2024-03-23T02:37:10;10.90;99.60
53073;DHT22;38955;48.916;2.336;2024-03-23T02:39:13;10.70;99.10
53073;DHT22;38955;48.916;2.336;2024-03-23T02:41:16;10.70;99.60
53073;DHT22;38955;48.916;2.336;2024-03-23T02:43:24;10.70;99.80
53073;DHT22;38955;48.916;2.336;2024-03-23T02:45:25;10.70;99.90
53073;DHT22;38955;48.916;2.336;2024-03-23T02:47:27;10.70;99.90
53073;DHT22;38955;48.916;2.336;2024-03-23T02:49:29;10.50;99.20
53073;DHT22;38955;48.916;2.336;2024-03-23T02:51:30;10.60;99.90
53073;DHT22;38955;48.916;2.336;2024-03-23T02:53:32;10.50;99.90
53073;DHT22;38955;48.916;2.336;2024-03-23T02:55:35;10.50;99.90
53073;DHT22;38955;48.916;2.336;2024-03-23T02:57:37;10.60;99.90
53073;DHT22;38955;48.916;2.336;2024-03-23T02:59:39;10.50;99.90
53073;DHT22;38955;48.916;2.336;2024-03-23T03:01:40;10.40;99.90
53073;DHT22;38955;48.916;2.336;2024-03-23T03:03:42;10.40;99.90
53073;DHT22;38955;48.916;2.336;2024-03-23T03:05:43;10.30;99.60
53073;DHT22;38955;48.916;2.336;2024-03-23T03:07:45;10.20;99.40
53073;DHT22;38955;48.916;2.336;2024-03-23T03:09:47;10.10;99.40
53073;DHT22;38955;48.916;2.336;2024-03-23T03:11:50;10.10;99.90
53073;DHT22;38955;48.916;2.336;2024-03-23T03:13:52;10.10;99.50
53073;DHT22;38955;48.916;2.336;2024-03-23T03:15:53;10.10;99.60
53073;DHT22;38955;48.916;2.336;2024-03-23T03:17:55;10.10;99.90
53073;DHT22;38955;48.916;2.336;2024-03-23T03:19:57;10.00;99.70
53073;DHT22;38955;48.916;2.336;2024-03-23T03:21:58;10.10;99.90
53073;DHT22;38955;48.916;2.336;2024-03-23T03:24:01;10.10;99.90
53073;DHT22;38955;48.916;2.336;2024-03-23T03:26:03;10.00;99.90
53073;DHT22;38955;48.916;2.336;2024-03-23T03:28:06;9.90;99.50
53073;DHT22;38955;48.916;2.336;2024-03-23T03:30:08;9.90;99.20
53073;DHT22;38955;48.916;2.336;2024-03-23T03:32:10;9.90;99.40
53073;DHT22;38955;48.916;2.336;2024-03-23T03:34:11;9.90;99.90
53073;DHT22;38955;48.916;2.336;2024-03-23T03:36:13;9.90;99.90
53073;DHT22;38955;48.916;2.336;2024-03-23T03:38:15;9.90;99.90
53073;DHT22;38955;48.916;2.336;2024-03-23T03:40:16;9.80;98.70
53073;DHT22;38955;48.916;2.336;2024-03-23T03:42:18;9.70;99.20
53073;DHT22;38955;48.916;2.336;2024-03-23T03:44:21;9.80;99.70
53073;DHT22;38955;48.916;2.336;2024-03-23T03:46:22;9.80;99.70
53073;DHT22;38955;48.916;2.336;2024-03-23T03:48:24;9.90;99.90
53073;DHT22;38955;48.916;2.336;2024-03-23T03:50:26;9.80;99.20
53073;DHT22;38955;48.916;2.336;2024-03-23T03:52:28;9.70;99.00
53073;DHT22;38955;48.916;2.336;2024-03-23T03:54:30;9.80;99.40
53073;DHT22;38955;48.916;2.336;2024-03-23T03:56:31;9.80;99.60
53073;DHT22;38955;48.916;2.336;2024-03-23T03:58:33;9.70;98.50
53073;DHT22;38955;48.916;2.336;2024-03-23T04:00:36;9.70;99.40
53073;DHT22;38955;48.916;2.336;2024-03-23T04:02:38;9.60;99.30
53073;DHT22;38955;48.916;2.336;2024-03-23T04:04:40;9.60;98.80
53073;DHT22;38955;48.916;2.336;2024-03-23T04:06:42;9.50;99.40
53073;DHT22;38955;48.916;2.336;2024-03-23T04:08:43;9.60;99.40
53073;DHT22;38955;48.916;2.336;2024-03-23T04:10:45;9.70;99.70
53073;DHT22;38955;48.916;2.336;2024-03-23T04:12:47;9.60;99.00
53073;DHT22;38955;48.916;2.336;2024-03-23T04:14:49;9.40;99.20
53073;DHT22;38955;48.916;2.336;2024-03-23T04:16:52;9.40;99.40
53073;DHT22;38955;48.916;2.336;2024-03-23T04:18:54;9.50;99.40
53073;DHT22;38955;48.916;2.336;2024-03-23T04:20:55;9.40;99.40
53073;DHT22;38955;48.916;2.336;2024-03-23T04:22:57;9.40;99.40
53073;DHT22;38955;48.916;2.336;2024-03-23T04:24:58;9.50;99.80
53073;DHT22;38955;48.916;2.336;2024-03-23T04:27:00;9.50;99.70
53073;DHT22;38955;48.916;2.336;2024-03-23T04:29:01;9.50;99.40
53073;DHT22;38955;48.916;2.336;2024-03-23T04:31:03;9.50;99.80
53073;DHT22;38955;48.916;2.336;2024-03-23T04:33:06;9.50;99.70
53073;DHT22;38955;48.916;2.336;2024-03-23T04:35:08;9.50;99.80
53073;DHT22;38955;48.916;2.336;2024-03-23T04:37:12;9.50;99.90
53073;DHT22;38955;48.916;2.336;2024-03-23T04:39:14;9.50;99.70
53073;DHT22;38955;48.916;2.336;2024-03-23T04:41:15;9.40;99.50
53073;DHT22;38955;48.916;2.336;2024-03-23T04:43:16;9.30;99.50
53073;DHT22;38955;48.916;2.336;2024-03-23T04:45:18;9.30;99.40
53073;DHT22;38955;48.916;2.336;2024-03-23T04:47:19;9.30;99.40
53073;DHT22;38955;48.916;2.336;2024-03-23T04:49:22;9.30;99.50
53073;DHT22;38955;48.916;2.336;2024-03-23T04:51:24;9.30;99.70
53073;DHT22;38955;48.916;2.336;2024-03-23T04:53:25;9.30;99.90
53073;DHT22;38955;48.916;2.336;2024-03-23T04:55:29;9.20;99.80
53073;DHT22;38955;48.916;2.336;2024-03-23T04:57:32;9.30;99.60
53073;DHT22;38955;48.916;2.336;2024-03-23T04:59:33;9.20;99.40
53073;DHT22;38955;48.916;2.336;2024-03-23T05:01:34;9.20;99.30
53073;DHT22;38955;48.916;2.336;2024-03-23T05:03:36;9.10;99.10
53073;DHT22;38955;48.916;2.336;2024-03-23T05:05:39;9.00;98.80
53073;DHT22;38955;48.916;2.336;2024-03-23T05:07:40;9.10;99.50
53073;DHT22;38955;48.916;2.336;2024-03-23T05:09:42;9.00;99.60
53073;DHT22;38955;48.916;2.336;2024-03-23T05:11:44;9.10;99.60
53073;DHT22;38955;48.916;2.336;2024-03-23T05:13:45;9.00;99.50
53073;DHT22;38955;48.916;2.336;2024-03-23T05:15:52;9.10;99.60
53073;DHT22;38955;48.916;2.336;2024-03-23T05:17:53;9.00;99.90
53073;DHT22;38955;48.916;2.336;2024-03-23T05:19:55;8.80;98.80
53073;DHT22;38955;48.916;2.336;2024-03-23T05:21:58;8.70;98.90
53073;DHT22;38955;48.916;2.336;2024-03-23T05:24:00;8.70;99.30
53073;DHT22;38955;48.916;2.336;2024-03-23T05:26:02;8.70;99.30
53073;DHT22;38955;48.916;2.336;2024-03-23T05:28:04;8.80;99.70
53073;DHT22;38955;48.916;2.336;2024-03-23T05:30:07;8.70;98.90
53073;DHT22;38955;48.916;2.336;2024-03-23T05:32:10;8.70;99.10
53073;DHT22;38955;48.916;2.336;2024-03-23T05:34:11;8.70;99.00
53073;DHT22;38955;48.916;2.336;2024-03-23T05:36:12;8.70;98.60
53073;DHT22;38955;48.916;2.336;2024-03-23T05:38:15;8.70;99.20
53073;DHT22;38955;48.916;2.336;2024-03-23T05:40:16;8.80;98.90
53073;DHT22;38955;48.916;2.336;2024-03-23T05:42:18;8.70;98.40
53073;DHT22;38955;48.916;2.336;2024-03-23T05:44:19;8.70;99.20
53073;DHT22;38955;48.916;2.336;2024-03-23T05:46:21;8.70;98.90
53073;DHT22;38955;48.916;2.336;2024-03-23T05:48:23;8.70;98.80
53073;DHT22;38955;48.916;2.336;2024-03-23T05:50:24;8.70;98.50
53073;DHT22;38955;48.916;2.336;2024-03-23T05:52:25;8.70;98.60
53073;DHT22;38955;48.916;2.336;2024-03-23T05:54:29;8.70;98.50
53073;DHT22;38955;48.916;2.336;2024-03-23T05:56:31;8.70;98.50
53073;DHT22;38955;48.916;2.336;2024-03-23T05:58:33;8.70;98.70
53073;DHT22;38955;48.916;2.336;2024-03-23T06:00:34;8.80;98.90
53073;DHT22;38955;48.916;2.336;2024-03-23T06:02:35;8.80;98.40
53073;DHT22;38955;48.916;2.336;2024-03-23T06:04:37;8.70;98.50
53073;DHT22;38955;48.916;2.336;2024-03-23T06:06:39;8.80;98.60
53073;DHT22;38955;48.916;2.336;2024-03-23T06:08:41;8.80;98.80
53073;DHT22;38955;48.916;2.336;2024-03-23T06:10:43;8.80;98.20
53073;DHT22;38955;48.916;2.336;2024-03-23T06:12:46;8.90;98.50
53073;DHT22;38955;48.916;2.336;2024-03-23T06:14:47;9.00;98.40
53073;DHT22;38955;48.916;2.336;2024-03-23T06:16:50;9.00;98.70
53073;DHT22;38955;48.916;2.336;2024-03-23T06:18:52;9.00;98.80
53073;DHT22;38955;48.916;2.336;2024-03-23T06:20:54;8.90;98.10
53073;DHT22;38955;48.916;2.336;2024-03-23T06:22:55;8.80;98.30
53073;DHT22;38955;48.916;2.336;2024-03-23T06:24:56;8.80;98.80
53073;DHT22;38955;48.916;2.336;2024-03-23T06:26:59;8.90;98.20
53073;DHT22;38955;48.916;2.336;2024-03-23T06:29:01;8.90;98.20
53073;DHT22;38955;48.916;2.336;2024-03-23T06:31:02;9.00;98.40
53073;DHT22;38955;48.916;2.336;2024-03-23T06:33:04;9.10;98.40
53073;DHT22;38955;48.916;2.336;2024-03-23T06:35:07;9.10;98.40
53073;DHT22;38955;48.916;2.336;2024-03-23T06:37:11;9.20;99.00
53073;DHT22;38955;48.916;2.336;2024-03-23T06:39:13;9.10;98.30
53073;DHT22;38955;48.916;2.336;2024-03-23T06:41:16;9.00;98.50
53073;DHT22;38955;48.916;2.336;2024-03-23T06:43:19;9.10;98.90
53073;DHT22;38955;48.916;2.336;2024-03-23T06:45:20;9.10;99.00
53073;DHT22;38955;48.916;2.336;2024-03-23T06:47:24;9.00;97.90
53073;DHT22;38955;48.916;2.336;2024-03-23T06:49:26;9.00;99.20
53073;DHT22;38955;48.916;2.336;2024-03-23T06:51:28;9.10;98.70
53073;DHT22;38955;48.916;2.336;2024-03-23T06:53:29;9.10;98.90
53073;DHT22;38955;48.916;2.336;2024-03-23T06:55:30;9.20;98.80
53073;DHT22;38955;48.916;2.336;2024-03-23T06:57:32;9.20;98.60
53073;DHT22;38955;48.916;2.336;2024-03-23T06:59:35;9.20;98.40
53073;DHT22;38955;48.916;2.336;2024-03-23T07:01:36;9.20;98.50
53073;DHT22;38955;48.916;2.336;2024-03-23T07:03:37;9.30;98.50
53073;DHT22;38955;48.916;2.336;2024-03-23T07:05:39;9.20;97.60
53073;DHT22;38955;48.916;2.336;2024-03-23T07:07:40;9.10;98.00
53073;DHT22;38955;48.916;2.336;2024-03-23T07:09:42;9.10;97.70
53073;DHT22;38955;48.916;2.336;2024-03-23T07:11:43;9.20;97.00
53073;DHT22;38955;48.916;2.336;2024-03-23T07:13:45;9.20;96.70
53073;DHT22;38955;48.916;2.336;2024-03-23T07:15:53;9.20;95.80
53073;DHT22;38955;48.916;2.336;2024-03-23T07:17:56;9.10;96.80
53073;DHT22;38955;48.916;2.336;2024-03-23T07:19:57;9.20;97.60
53073;DHT22;38955;48.916;2.336;2024-03-23T07:21:58;9.10;96.40
53073;DHT22;38955;48.916;2.336;2024-03-23T07:24:00;9.00;95.40
53073;DHT22;38955;48.916;2.336;2024-03-23T07:26:02;8.90;95.60
53073;DHT22;38955;48.916;2.336;2024-03-23T07:28:04;8.80;96.10
53073;DHT22;38955;48.916;2.336;2024-03-23T07:30:07;8.80;96.40
53073;DHT22;38955;48.916;2.336;2024-03-23T07:32:11;8.90;97.20
53073;DHT22;38955;48.916;2.336;2024-03-23T07:34:12;9.10;97.30
53073;DHT22;38955;48.916;2.336;2024-03-23T07:36:15;9.40;97.30
53073;DHT22;38955;48.916;2.336;2024-03-23T07:38:16;9.40;96.80
53073;DHT22;38955;48.916;2.336;2024-03-23T07:40:17;9.40;97.00
53073;DHT22;38955;48.916;2.336;2024-03-23T07:42:19;10.00;96.70
53073;DHT22;38955;48.916;2.336;2024-03-23T07:44:20;10.50;96.50
53073;DHT22;38955;48.916;2.336;2024-03-23T07:46:21;11.00;95.80
53073;DHT22;38955;48.916;2.336;2024-03-23T07:48:24;11.40;94.80
53073;DHT22;38955;48.916;2.336;2024-03-23T07:50:26;11.40;94.70
53073;DHT22;38955;48.916;2.336;2024-03-23T07:52:28;11.60;94.40
53073;DHT22;38955;48.916;2.336;2024-03-23T07:54:29;12.00;93.80
53073;DHT22;38955;48.916;2.336;2024-03-23T07:56:31;12.00;93.90
53073;DHT22;38955;48.916;2.336;2024-03-23T07:58:33;12.30;93.90
53073;DHT22;38955;48.916;2.336;2024-03-23T08:00:35;12.30;93.30
53073;DHT22;38955;48.916;2.336;2024-03-23T08:02:37;12.50;93.10
53073;DHT22;38955;48.916;2.336;2024-03-23T08:04:39;12.60;92.70
53073;DHT22;38955;48.916;2.336;2024-03-23T08:06:41;12.50;92.30
53073;DHT22;38955;48.916;2.336;2024-03-23T08:08:44;12.10;92.70
53073;DHT22;38955;48.916;2.336;2024-03-23T08:10:49;11.60;92.80
53073;DHT22;38955;48.916;2.336;2024-03-23T08:12:51;11.60;94.20
53073;DHT22;38955;48.916;2.336;2024-03-23T08:14:52;12.00;93.60
53073;DHT22;38955;48.916;2.336;2024-03-23T08:16:54;12.20;92.40
53073;DHT22;38955;48.916;2.336;2024-03-23T08:18:56;12.20;92.60
53073;DHT22;38955;48.916;2.336;2024-03-23T08:20:59;11.80;92.60
53073;DHT22;38955;48.916;2.336;2024-03-23T08:23:01;11.60;93.90
53073;DHT22;38955;48.916;2.336;2024-03-23T08:25:02;11.80;93.90
53073;DHT22;38955;48.916;2.336;2024-03-23T08:27:04;12.00;94.10
53073;DHT22;38955;48.916;2.336;2024-03-23T08:29:06;12.30;92.80
53073;DHT22;38955;48.916;2.336;2024-03-23T08:31:08;12.10;92.80
53073;DHT22;38955;48.916;2.336;2024-03-23T08:33:10;12.20;93.30
53073;DHT22;38955;48.916;2.336;2024-03-23T08:35:11;12.10;93.10
53073;DHT22;38955;48.916;2.336;2024-03-23T08:37:14;12.00;92.80
53073;DHT22;38955;48.916;2.336;2024-03-23T08:39:15;12.20;93.30
53073;DHT22;38955;48.916;2.336;2024-03-23T08:41:16;12.20;93.00
53073;DHT22;38955;48.916;2.336;2024-03-23T08:43:18;12.00;92.70
53073;DHT22;38955;48.916;2.336;2024-03-23T08:45:19;11.60;92.40
53073;DHT22;38955;48.916;2.336;2024-03-23T08:47:20;11.30;93.80
53073;DHT22;38955;48.916;2.336;2024-03-23T08:49:22;11.10;94.40
53073;DHT22;38955;48.916;2.336;2024-03-23T08:51:23;10.70;94.90
53073;DHT22;38955;48.916;2.336;2024-03-23T08:53:27;10.50;94.20
53073;DHT22;38955;48.916;2.336;2024-03-23T08:55:28;10.00;94.20
53073;DHT22;38955;48.916;2.336;2024-03-23T08:57:30;10.00;95.30
53073;DHT22;38955;48.916;2.336;2024-03-23T08:59:31;10.00;96.10
53073;DHT22;38955;48.916;2.336;2024-03-23T09:01:32;9.90;95.50
53073;DHT22;38955;48.916;2.336;2024-03-23T09:03:34;9.90;96.60
53073;DHT22;38955;48.916;2.336;2024-03-23T09:05:39;9.60;96.70
53073;DHT22;38955;48.916;2.336;2024-03-23T09:07:40;9.70;97.70
53073;DHT22;38955;48.916;2.336;2024-03-23T09:09:43;9.70;97.50
53073;DHT22;38955;48.916;2.336;2024-03-23T09:11:44;9.90;98.30
53073;DHT22;38955;48.916;2.336;2024-03-23T09:13:46;10.10;98.00
53073;DHT22;38955;48.916;2.336;2024-03-23T09:15:48;10.20;97.10
53073;DHT22;38955;48.916;2.336;2024-03-23T09:17:50;10.50;97.20
53073;DHT22;38955;48.916;2.336;2024-03-23T09:19:51;10.70;96.50
53073;DHT22;38955;48.916;2.336;2024-03-23T09:21:52;10.80;96.90
53073;DHT22;38955;48.916;2.336;2024-03-23T09:23:54;11.00;97.60
53073;DHT22;38955;48.916;2.336;2024-03-23T09:25:57;10.90;94.40
53073;DHT22;38955;48.916;2.336;2024-03-23T09:27:58;10.90;94.20
53073;DHT22;38955;48.916;2.336;2024-03-23T09:29:59;11.00;94.90
53073;DHT22;38955;48.916;2.336;2024-03-23T09:32:01;11.30;94.60
53073;DHT22;38955;48.916;2.336;2024-03-23T09:34:02;11.20;93.90
53073;DHT22;38955;48.916;2.336;2024-03-23T09:36:04;11.10;93.90
53073;DHT22;38955;48.916;2.336;2024-03-23T09:38:06;11.10;95.60
53073;DHT22;38955;48.916;2.336;2024-03-23T09:40:11;11.00;95.30
53073;DHT22;38955;48.916;2.336;2024-03-23T09:42:14;10.80;95.40
53073;DHT22;38955;48.916;2.336;2024-03-23T09:44:16;10.60;95.20
53073;DHT22;38955;48.916;2.336;2024-03-23T09:46:17;10.50;95.80
53073;DHT22;38955;48.916;2.336;2024-03-23T09:48:19;10.60;95.70
53073;DHT22;38955;48.916;2.336;2024-03-23T09:50:20;10.70;94.90
53073;DHT22;38955;48.916;2.336;2024-03-23T09:52:21;10.70;95.40
53073;DHT22;38955;48.916;2.336;2024-03-23T09:54:23;10.50;93.90
53073;DHT22;38955;48.916;2.336;2024-03-23T09:56:24;10.40;94.50
53073;DHT22;38955;48.916;2.336;2024-03-23T09:58:27;10.40;94.60
53073;DHT22;38955;48.916;2.336;2024-03-23T10:00:28;10.70;96.20
53073;DHT22;38955;48.916;2.336;2024-03-23T10:02:30;10.90;94.90
53073;DHT22;38955;48.916;2.336;2024-03-23T10:04:38;10.90;94.90
53073;DHT22;38955;48.916;2.336;2024-03-23T10:06:39;10.60;94.80
53073;DHT22;38955;48.916;2.336;2024-03-23T10:08:40;10.40;93.90
53073;DHT22;38955;48.916;2.336;2024-03-23T10:10:42;10.30;94.70
53073;DHT22;38955;48.916;2.336;2024-03-23T10:12:47;10.60;95.40
53073;DHT22;38955;48.916;2.336;2024-03-23T10:14:50;10.70;94.40
53073;DHT22;38955;48.916;2.336;2024-03-23T10:16:52;10.90;95.90
53073;DHT22;38955;48.916;2.336;2024-03-23T10:18:53;10.90;94.40
53073;DHT22;38955;48.916;2.336;2024-03-23T10:21:07;11.20;95.40
53073;DHT22;38955;48.916;2.336;2024-03-23T10:23:16;11.40;95.00
53073;DHT22;38955;48.916;2.336;2024-03-23T10:25:22;11.20;93.70
53073;DHT22;38955;48.916;2.336;2024-03-23T10:27:23;11.50;94.30
53073;DHT22;38955;48.916;2.336;2024-03-23T10:29:24;11.70;94.30
53073;DHT22;38955;48.916;2.336;2024-03-23T10:31:31;12.00;93.70
53073;DHT22;38955;48.916;2.336;2024-03-23T10:33:32;12.30;94.00
53073;DHT22;38955;48.916;2.336;2024-03-23T10:35:34;12.40;92.90
53073;DHT22;38955;48.916;2.336;2024-03-23T10:37:36;12.40;92.40
53073;DHT22;38955;48.916;2.336;2024-03-23T10:39:39;12.70;92.60
53073;DHT22;38955;48.916;2.336;2024-03-23T10:41:41;13.10;93.10
53073;DHT22;38955;48.916;2.336;2024-03-23T10:43:45;13.10;92.00
53073;DHT22;38955;48.916;2.336;2024-03-23T10:45:47;13.20;92.20
53073;DHT22;38955;48.916;2.336;2024-03-23T10:47:51;13.30;92.50
53073;DHT22;38955;48.916;2.336;2024-03-23T10:49:53;13.40;91.40
53073;DHT22;38955;48.916;2.336;2024-03-23T10:51:58;13.40;90.90
53073;DHT22;38955;48.916;2.336;2024-03-23T10:54:03;13.30;91.70
53073;DHT22;38955;48.916;2.336;2024-03-23T10:56:06;13.20;91.00
53073;DHT22;38955;48.916;2.336;2024-03-23T10:58:09;13.20;91.10
53073;DHT22;38955;48.916;2.336;2024-03-23T11:00:14;13.30;90.20
53073;DHT22;38955;48.916;2.336;2024-03-23T11:02:19;12.90;88.60
53073;DHT22;38955;48.916;2.336;2024-03-23T11:04:31;12.80;90.00
53073;DHT22;38955;48.916;2.336;2024-03-23T11:06:35;12.80;91.10
53073;DHT22;38955;48.916;2.336;2024-03-23T11:08:38;12.80;90.40
53073;DHT22;38955;48.916;2.336;2024-03-23T11:10:39;13.00;90.60
53073;DHT22;38955;48.916;2.336;2024-03-23T11:12:41;12.90;90.90
53073;DHT22;38955;48.916;2.336;2024-03-23T11:14:43;13.00;90.60
53073;DHT22;38955;48.916;2.336;2024-03-23T11:16:44;12.90;89.20
53073;DHT22;38955;48.916;2.336;2024-03-23T11:18:46;12.80;90.00
53073;DHT22;38955;48.916;2.336;2024-03-23T11:20:49;12.80;90.40
53073;DHT22;38955;48.916;2.336;2024-03-23T11:22:50;12.80;89.10
53073;DHT22;38955;48.916;2.336;2024-03-23T11:24:53;12.90;88.60
53073;DHT22;38955;48.916;2.336;2024-03-23T11:26:55;13.10;90.00
53073;DHT22;38955;48.916;2.336;2024-03-23T11:29:09;13.10;87.30
53073;DHT22;38955;48.916;2.336;2024-03-23T11:31:10;12.90;89.40
53073;DHT22;38955;48.916;2.336;2024-03-23T11:33:12;12.60;86.40
53073;DHT22;38955;48.916;2.336;2024-03-23T11:35:30;12.50;87.70
53073;DHT22;38955;48.916;2.336;2024-03-23T11:37:34;12.60;87.10
53073;DHT22;38955;48.916;2.336;2024-03-23T11:39:35;12.50;88.00
53073;DHT22;38955;48.916;2.336;2024-03-23T11:41:37;12.50;87.90
53073;DHT22;38955;48.916;2.336;2024-03-23T11:43:46;12.60;87.00
53073;DHT22;38955;48.916;2.336;2024-03-23T11:45:49;12.70;86.40
53073;DHT22;38955;48.916;2.336;2024-03-23T11:48:06;12.60;85.70
53073;DHT22;38955;48.916;2.336;2024-03-23T11:50:09;12.70;84.40
53073;DHT22;38955;48.916;2.336;2024-03-23T11:52:10;12.90;87.00
53073;DHT22;38955;48.916;2.336;2024-03-23T11:54:13;13.20;86.70
53073;DHT22;38955;48.916;2.336;2024-03-23T11:56:15;13.10;81.00
53073;DHT22;38955;48.916;2.336;2024-03-23T11:58:18;13.00;80.80
53073;DHT22;38955;48.916;2.336;2024-03-23T12:00:23;13.20;83.60
53073;DHT22;38955;48.916;2.336;2024-03-23T12:02:25;13.30;83.50
53073;DHT22;38955;48.916;2.336;2024-03-23T12:04:27;13.30;83.00
53073;DHT22;38955;48.916;2.336;2024-03-23T12:06:29;13.00;81.20
53073;DHT22;38955;48.916;2.336;2024-03-23T12:08:31;13.00;82.70
53073;DHT22;38955;48.916;2.336;2024-03-23T12:10:35;12.80;80.80
53073;DHT22;38955;48.916;2.336;2024-03-23T12:12:37;13.00;80.60
53073;DHT22;38955;48.916;2.336;2024-03-23T12:14:39;13.00;80.80
53073;DHT22;38955;48.916;2.336;2024-03-23T12:16:40;13.00;79.40
53073;DHT22;38955;48.916;2.336;2024-03-23T12:18:43;12.90;80.50
53073;DHT22;38955;48.916;2.336;2024-03-23T12:20:45;13.10;78.20
53073;DHT22;38955;48.916;2.336;2024-03-23T12:22:46;13.10;80.10
53073;DHT22;38955;48.916;2.336;2024-03-23T12:24:48;13.30;79.80
53073;DHT22;38955;48.916;2.336;2024-03-23T12:26:51;13.40;79.10
53073;DHT22;38955;48.916;2.336;2024-03-23T12:28:53;13.40;79.70
53073;DHT22;38955;48.916;2.336;2024-03-23T12:30:54;13.40;79.90
53073;DHT22;38955;48.916;2.336;2024-03-23T12:32:56;13.40;80.40
53073;DHT22;38955;48.916;2.336;2024-03-23T12:35:01;13.50;79.10
53073;DHT22;38955;48.916;2.336;2024-03-23T12:37:02;13.70;81.20
53073;DHT22;38955;48.916;2.336;2024-03-23T12:39:04;14.00;81.30
53073;DHT22;38955;48.916;2.336;2024-03-23T12:41:06;13.90;79.30
53073;DHT22;38955;48.916;2.336;2024-03-23T12:43:09;13.90;79.90
53073;DHT22;38955;48.916;2.336;2024-03-23T12:45:10;13.90;80.50
53073;DHT22;38955;48.916;2.336;2024-03-23T12:47:12;14.10;79.20
53073;DHT22;38955;48.916;2.336;2024-03-23T12:49:14;14.20;79.50
53073;DHT22;38955;48.916;2.336;2024-03-23T12:51:15;14.10;78.40
53073;DHT22;38955;48.916;2.336;2024-03-23T12:53:17;14.20;78.80
53073;DHT22;38955;48.916;2.336;2024-03-23T12:55:18;14.10;77.10
53073;DHT22;38955;48.916;2.336;2024-03-23T12:57:20;13.90;75.20
53073;DHT22;38955;48.916;2.336;2024-03-23T12:59:24;13.80;76.40
53073;DHT22;38955;48.916;2.336;2024-03-23T13:01:25;13.80;76.40
53073;DHT22;38955;48.916;2.336;2024-03-23T13:03:27;13.70;78.60
53073;DHT22;38955;48.916;2.336;2024-03-23T13:05:29;13.80;77.10
53073;DHT22;38955;48.916;2.336;2024-03-23T13:07:31;13.90;79.60
53073;DHT22;38955;48.916;2.336;2024-03-23T13:09:32;14.00;77.50
53073;DHT22;38955;48.916;2.336;2024-03-23T13:11:34;13.90;78.10
53073;DHT22;38955;48.916;2.336;2024-03-23T13:13:36;13.80;78.30
53073;DHT22;38955;48.916;2.336;2024-03-23T13:15:39;13.40;79.80
53073;DHT22;38955;48.916;2.336;2024-03-23T13:17:41;13.20;84.70
53073;DHT22;38955;48.916;2.336;2024-03-23T13:19:42;13.00;86.00
53073;DHT22;38955;48.916;2.336;2024-03-23T13:21:44;12.70;86.40
53073;DHT22;38955;48.916;2.336;2024-03-23T13:23:47;12.80;88.80
53073;DHT22;38955;48.916;2.336;2024-03-23T13:25:52;12.80;88.90
53073;DHT22;38955;48.916;2.336;2024-03-23T13:27:54;13.00;89.50
53073;DHT22;38955;48.916;2.336;2024-03-23T13:29:56;13.10;89.90
53073;DHT22;38955;48.916;2.336;2024-03-23T13:31:59;13.20;90.10
53073;DHT22;38955;48.916;2.336;2024-03-23T13:34:00;13.10;88.70
53073;DHT22;38955;48.916;2.336;2024-03-23T13:36:04;12.90;89.00
53073;DHT22;38955;48.916;2.336;2024-03-23T13:38:05;12.80;86.60
53073;DHT22;38955;48.916;2.336;2024-03-23T13:40:08;12.60;87.00
53073;DHT22;38955;48.916;2.336;2024-03-23T13:42:10;12.60;89.30
53073;DHT22;38955;48.916;2.336;2024-03-23T13:44:14;12.60;87.80
53073;DHT22;38955;48.916;2.336;2024-03-23T13:46:16;12.70;86.50
53073;DHT22;38955;48.916;2.336;2024-03-23T13:48:20;12.70;87.60
53073;DHT22;38955;48.916;2.336;2024-03-23T13:50:22;12.60;87.90